Time;durP1;ratioP1;P1;durP2;ratioP2;P2;SDS_P1;SDS_P2;PMS_P1;PMS_P2;Temp;Humidity;BMP_temperature;BMP_pressure;BME280_temperature;BME280_humidity;BME280_pressure;Samples;Min_cycle;Max_cycle;Signal;HPM_P1;HPM_P2
2021/05/14 00:02:29;;;;;;;28.00;18.63;;;;;;;10.32;97.93;100392.72;6251194;28;20486;-76
2021/05/14 00:05:30;;;;;;;28.15;18.08;;;;;;;10.38;97.43;100391.53;6251083;28;20064;-78
2021/05/14 00:08:31;;;;;;;25.98;17.27;;;;;;;10.55;95.35;100396.63;6251122;28;20069;-76
2021/05/14 00:11:32;;;;;;;27.13;18.17;;;;;;;10.49;95.69;100386.50;6250838;28;20056;-77
2021/05/14 00:14:34;;;;;;;25.55;18.45;;;;;;;10.40;94.76;100384.38;6250416;28;20107;-80
2021/05/14 00:17:35;;;;;;;27.52;19.13;;;;;;;10.12;97.11;100385.09;6250511;28;20048;-77
2021/05/14 00:20:35;;;;;;;29.60;19.90;;;;;;;10.13;97.46;100381.56;6250231;28;20104;-77
2021/05/14 00:23:36;;;;;;;27.80;18.65;;;;;;;10.12;96.30;100383.31;6249768;28;20083;-79
2021/05/14 00:26:37;;;;;;;29.13;19.85;;;;;;;9.99;97.51;100387.59;6250178;28;20433;-77
2021/05/14 00:29:39;;;;;;;32.30;20.55;;;;;;;10.13;97.23;100384.19;6250229;28;20068;-76
2021/05/14 00:32:40;;;;;;;36.35;20.33;;;;;;;10.04;96.93;100387.34;6250005;28;20049;-80
2021/05/14 00:35:41;;;;;;;32.10;19.60;;;;;;;10.10;96.78;100386.97;6249764;28;20053;-79
2021/05/14 00:38:42;;;;;;;31.00;20.58;;;;;;;9.92;97.54;100391.50;6249712;28;20549;-77
2021/05/14 00:41:43;;;;;;;37.40;22.23;;;;;;;10.03;98.69;100389.09;6249980;28;20072;-76
2021/05/14 00:44:46;;;;;;;32.95;22.83;;;;;;;10.05;98.45;100389.03;6250137;28;20057;-77
2021/05/14 00:47:46;;;;;;;33.13;22.30;;;;;;;10.09;97.44;100391.41;6249832;28;20052;-77
2021/05/14 00:50:47;;;;;;;34.45;22.15;;;;;;;10.22;96.18;100399.41;6249747;28;20498;-77
2021/05/14 00:53:48;;;;;;;31.45;21.27;;;;;;;9.99;96.52;100384.09;6249173;28;20434;-77
2021/05/14 00:56:49;;;;;;;29.48;20.45;;;;;;;9.99;97.79;100391.97;6249810;28;20081;-77
2021/05/14 00:59:51;;;;;;;38.53;21.98;;;;;;;9.88;98.65;100387.34;6249136;28;20068;-77
2021/05/14 01:02:53;;;;;;;39.20;23.63;;;;;;;9.91;99.00;100388.03;6249216;28;20058;-78
2021/05/14 01:05:53;;;;;;;39.67;23.05;;;;;;;10.03;97.82;100388.25;6249479;28;20056;-77
2021/05/14 01:08:55;;;;;;;41.63;23.73;;;;;;;9.86;97.13;100394.47;6249243;28;20124;-76
2021/05/14 01:11:56;;;;;;;39.05;22.85;;;;;;;9.77;98.50;100395.84;6249065;28;20045;-76
2021/05/14 01:14:57;;;;;;;42.20;25.83;;;;;;;9.81;99.10;100392.13;6249358;28;20050;-79
2021/05/14 01:17:58;;;;;;;41.10;23.85;;;;;;;9.82;97.26;100395.56;6249509;28;20433;-78
2021/05/14 01:21:00;;;;;;;47.25;24.60;;;;;;;9.85;97.69;100401.47;6249291;28;20054;-78
2021/05/14 01:24:02;;;;;;;44.55;25.13;;;;;;;9.66;97.21;100403.44;6250118;28;20080;-80
2021/05/14 01:27:03;;;;;;;45.85;25.33;;;;;;;9.73;97.71;100406.59;6249274;28;20136;-79
2021/05/14 01:30:05;;;;;;;45.92;25.27;;;;;;;9.61;97.67;100394.97;6249296;28;20065;-80
2021/05/14 01:33:06;;;;;;;52.47;27.15;;;;;;;9.54;99.38;100402.34;6248569;28;20520;-80
2021/05/14 01:36:09;;;;;;;56.75;29.23;;;;;;;9.81;98.23;100397.34;6248573;28;20049;-80
2021/05/14 01:39:12;;;;;;;55.75;30.08;;;;;;;9.72;98.57;100403.13;6241218;28;20045;-80
2021/05/14 01:42:13;;;;;;;58.10;30.25;;;;;;;9.68;98.41;100396.34;6240482;28;20053;-80
2021/05/14 01:45:14;;;;;;;58.20;31.38;;;;;;;9.77;99.21;100390.59;6248220;28;20050;-77
2021/05/14 01:48:15;;;;;;;54.30;29.67;;;;;;;9.71;98.30;100396.16;6240022;28;20048;-80
2021/05/14 01:51:19;;;;;;;54.13;30.80;;;;;;;9.61;97.51;100385.31;6248074;28;20049;-81
2021/05/14 01:54:19;;;;;;;65.25;32.80;;;;;;;9.38;99.29;100388.38;6247864;28;20057;-80
2021/05/14 01:57:20;;;;;;;70.97;35.72;;;;;;;9.51;99.25;100393.78;6248143;28;20063;-80
2021/05/14 02:00:22;;;;;;;71.90;37.38;;;;;;;9.52;99.26;100385.00;6248181;28;20049;-79
2021/05/14 02:03:23;;;;;;;74.65;38.75;;;;;;;9.43;99.74;100381.09;6247890;28;20049;-80
2021/05/14 02:06:24;;;;;;;60.50;34.45;;;;;;;9.27;100.00;100380.25;6247858;28;20075;-80
2021/05/14 02:09:25;;;;;;;47.13;28.10;;;;;;;9.27;100.00;100378.47;6247431;28;20045;-80
2021/05/14 02:12:26;;;;;;;42.60;23.90;;;;;;;9.31;99.78;100379.13;6247419;28;20053;-80
2021/05/14 02:15:27;;;;;;;39.53;24.67;;;;;;;9.22;100.00;100382.22;6247857;28;20052;-78
2021/05/14 02:18:28;;;;;;;38.53;22.58;;;;;;;9.24;100.00;100378.63;6247570;28;20045;-80
2021/05/14 02:21:30;;;;;;;41.75;23.70;;;;;;;9.21;100.00;100372.69;6247683;28;20052;-78
2021/05/14 02:24:30;;;;;;;46.47;26.02;;;;;;;9.17;100.00;100371.16;6247633;28;20049;-79
2021/05/14 02:27:32;;;;;;;51.47;29.13;;;;;;;9.05;100.00;100370.91;6247531;28;20494;-78
2021/05/14 02:30:33;;;;;;;46.85;26.85;;;;;;;9.21;100.00;100364.81;6247636;28;20060;-78
2021/05/14 02:33:34;;;;;;;48.78;28.55;;;;;;;9.32;100.00;100365.94;6247360;28;20053;-78
2021/05/14 02:36:36;;;;;;;60.95;32.22;;;;;;;9.29;100.00;100371.34;6247764;28;20050;-79
2021/05/14 02:39:37;;;;;;;64.75;34.15;;;;;;;9.25;100.00;100374.22;6247701;28;20060;-78
2021/05/14 02:42:38;;;;;;;76.72;38.65;;;;;;;8.97;100.00;100374.84;6247749;28;20057;-78
2021/05/14 02:45:39;;;;;;;80.55;38.42;;;;;;;9.16;100.00;100367.69;6247261;28;20123;-79
2021/05/14 02:48:39;;;;;;;66.50;33.72;;;;;;;9.10;100.00;100365.41;6247428;28;20447;-80
2021/05/14 02:51:41;;;;;;;58.13;31.33;;;;;;;9.17;100.00;100371.16;6247137;28;20080;-78
2021/05/14 02:54:42;;;;;;;58.47;31.70;;;;;;;9.08;100.00;100364.63;6246907;28;20052;-78
2021/05/14 02:57:44;;;;;;;51.53;28.08;;;;;;;9.26;100.00;100374.13;6247447;28;20556;-78
2021/05/14 03:00:45;;;;;;;53.75;26.40;;;;;;;9.22;100.00;100363.88;6247559;28;20049;-78
2021/05/14 03:03:46;;;;;;;44.58;23.95;;;;;;;9.17;100.00;100366.75;6247358;28;20053;-78
2021/05/14 03:06:48;;;;;;;40.60;22.88;;;;;;;9.11;100.00;100361.84;6247337;28;20114;-79
2021/05/14 03:09:48;;;;;;;42.40;23.08;;;;;;;9.03;100.00;100367.50;6247401;28;20099;-78
2021/05/14 03:12:49;;;;;;;38.00;23.30;;;;;;;9.09;100.00;100363.72;6247427;28;20053;-78
2021/05/14 03:15:50;;;;;;;33.45;21.30;;;;;;;9.23;100.00;100371.69;6247251;28;20053;-79
2021/05/14 03:18:51;;;;;;;34.25;20.38;;;;;;;9.08;100.00;100368.13;6246937;28;20123;-78
2021/05/14 03:21:53;;;;;;;30.98;20.25;;;;;;;9.12;99.81;100368.78;6248407;28;20135;-77
2021/05/14 03:24:54;;;;;;;28.95;17.55;;;;;;;9.26;97.83;100368.03;6251600;28;20464;-77
2021/05/14 03:27:55;;;;;;;31.20;17.42;;;;;;;9.08;99.17;100372.47;6251612;28;20095;-78
2021/05/14 03:30:56;;;;;;;25.73;16.75;;;;;;;9.19;98.18;100371.94;6251588;28;20057;-78
2021/05/14 03:33:56;;;;;;;29.20;18.35;;;;;;;9.01;99.37;100376.38;6251544;28;20175;-78
2021/05/14 03:36:58;;;;;;;32.63;19.45;;;;;;;9.15;98.32;100369.47;6251899;28;20136;-78
2021/05/14 03:40:03;;;;;;;34.05;20.60;;;;;;;8.87;99.38;100371.88;6251654;28;20054;-77
2021/05/14 03:43:05;;;;;;;31.75;19.48;;;;;;;9.03;99.88;100375.34;6251174;28;20128;-77
2021/05/14 03:46:05;;;;;;;33.78;21.20;;;;;;;8.99;98.71;100378.22;6251205;28;20053;-77
2021/05/14 03:49:07;;;;;;;35.05;20.38;;;;;;;9.11;98.58;100381.03;6251123;28;20517;-77
2021/05/14 03:52:11;;;;;;;33.47;21.45;;;;;;;8.96;100.00;100378.41;6244965;28;20045;-77
2021/05/14 03:55:11;;;;;;;33.33;20.38;;;;;;;9.22;98.55;100383.13;6250787;28;20052;-79
2021/05/14 03:58:12;;;;;;;36.67;21.73;;;;;;;8.95;98.96;100374.06;6236777;28;20089;-77
2021/05/14 04:01:13;;;;;;;33.10;19.65;;;;;;;9.07;99.71;100374.25;6225996;28;20057;-78
2021/05/14 04:04:14;;;;;;;35.38;20.95;;;;;;;9.03;99.47;100374.50;6226115;28;20049;-77
2021/05/14 04:07:16;;;;;;;37.70;21.42;;;;;;;8.95;100.00;100380.19;6226077;28;20472;-78
2021/05/14 04:10:24;;;;;;;39.75;22.27;;;;;;;9.02;100.00;100378.06;6226171;28;20046;-78
2021/05/14 04:16:44;;;;;;;38.00;21.73;;;;;;;9.08;99.16;100381.22;6253821;28;20105;-77
2021/05/14 04:19:47;;;;;;;34.08;20.35;;;;;;;9.10;99.97;100375.88;6253789;28;20073;-76
2021/05/14 04:22:50;;;;;;;38.85;21.10;;;;;;;9.07;99.81;100378.66;6256862;28;20049;-77
2021/05/14 04:25:51;;;;;;;40.60;22.45;;;;;;;9.13;100.00;100383.59;6266209;28;20046;-77
2021/05/14 04:28:52;;;;;;;36.45;21.05;;;;;;;9.06;100.00;100385.69;6273129;22;20496;-77
2021/05/14 04:31:53;;;;;;;33.65;20.42;;;;;;;9.15;100.00;100386.97;6200121;28;20133;-76
2021/05/14 04:34:54;;;;;;;34.53;19.88;;;;;;;9.18;100.00;100380.72;6199470;28;20046;-77
2021/05/14 04:37:56;;;;;;;35.72;20.52;;;;;;;9.03;100.00;100383.22;6201155;28;20487;-79
2021/05/14 04:40:56;;;;;;;41.17;21.23;;;;;;;8.82;100.00;100384.34;6202366;28;20100;-77
2021/05/14 04:43:57;;;;;;;42.78;23.63;;;;;;;8.82;100.00;100386.97;6203241;28;20050;-77
2021/05/14 04:46:58;;;;;;;38.60;21.90;;;;;;;8.97;100.00;100393.19;6202673;28;20534;-79
2021/05/14 04:49:59;;;;;;;35.67;20.95;;;;;;;8.99;100.00;100383.47;6200272;28;20422;-77
2021/05/14 04:53:04;;;;;;;42.83;20.10;;;;;;;9.06;100.00;100392.69;6201204;28;20061;-79
2021/05/14 04:56:04;;;;;;;38.28;20.48;;;;;;;8.87;100.00;100396.28;6201284;28;20054;-78
2021/05/14 04:59:05;;;;;;;42.42;22.70;;;;;;;8.78;100.00;100399.38;6201106;28;20100;-79
2021/05/14 05:02:07;;;;;;;42.42;21.88;;;;;;;8.83;100.00;100399.16;6201134;28;20058;-79
2021/05/14 05:05:09;;;;;;;46.47;23.95;;;;;;;8.62;100.00;100391.44;6201448;28;20503;-76
2021/05/14 05:08:11;;;;;;;47.00;22.63;;;;;;;8.63;100.00;100398.41;6201940;28;20050;-79
2021/05/14 05:11:12;;;;;;;46.70;23.05;;;;;;;8.88;100.00;100392.75;6203362;28;20565;-80
2021/05/14 05:14:13;;;;;;;45.22;21.73;;;;;;;8.72;100.00;100404.06;6202441;28;20094;-80
2021/05/14 05:17:14;;;;;;;49.13;22.80;;;;;;;8.83;100.00;100397.38;6203137;28;20458;-77
2021/05/14 05:20:15;;;;;;;43.15;22.08;;;;;;;8.93;100.00;100402.97;6203697;28;20054;-79
2021/05/14 05:23:17;;;;;;;41.78;22.45;;;;;;;8.85;100.00;100410.38;6203034;28;20058;-79
2021/05/14 05:26:18;;;;;;;35.47;19.90;;;;;;;8.89;100.00;100409.31;6201661;28;20061;-77
2021/05/14 05:29:19;;;;;;;33.72;18.73;;;;;;;8.87;100.00;100416.41;6202398;28;20110;-79
2021/05/14 05:32:20;;;;;;;28.83;17.38;;;;;;;8.82;100.00;100419.25;6202558;28;20137;-77
2021/05/14 05:35:21;;;;;;;27.95;15.68;;;;;;;8.89;100.00;100420.63;6201423;28;20423;-79
2021/05/14 05:38:24;;;;;;;29.38;15.50;;;;;;;8.79;100.00;100415.94;6200849;28;20054;-79
2021/05/14 05:41:25;;;;;;;30.25;14.45;;;;;;;8.82;100.00;100421.03;6200810;28;20046;-78
2021/05/14 05:44:26;;;;;;;25.00;14.50;;;;;;;8.88;100.00;100423.34;6202023;28;20053;-78
2021/05/14 05:47:29;;;;;;;27.23;15.05;;;;;;;8.83;100.00;100427.97;6200468;28;20046;-78
2021/05/14 05:50:30;;;;;;;26.98;15.70;;;;;;;8.78;100.00;100428.22;6201507;28;20050;-79
2021/05/14 05:53:32;;;;;;;25.85;14.55;;;;;;;8.80;100.00;100433.34;6201237;28;20057;-79
2021/05/14 05:56:33;;;;;;;27.10;15.75;;;;;;;8.80;100.00;100438.59;6201545;28;20058;-80
2021/05/14 05:59:35;;;;;;;29.67;15.75;;;;;;;8.73;100.00;100439.84;6201762;28;20510;-79
2021/05/14 06:02:36;;;;;;;31.10;16.00;;;;;;;8.79;100.00;100435.13;6201156;28;20058;-79
2021/05/14 06:05:37;;;;;;;30.17;15.25;;;;;;;8.87;100.00;100435.59;6200061;28;20105;-79
2021/05/14 06:08:39;;;;;;;27.08;16.00;;;;;;;8.72;100.00;100444.25;6200048;28;20049;-79
2021/05/14 06:11:40;;;;;;;34.28;17.58;;;;;;;8.74;100.00;100452.88;6201950;28;20050;-79
2021/05/14 06:14:41;;;;;;;34.17;18.15;;;;;;;8.85;100.00;100452.31;6202865;28;20053;-79
2021/05/14 06:17:42;;;;;;;35.05;18.15;;;;;;;8.77;100.00;100455.34;6204614;28;20503;-80
2021/05/14 06:20:45;;;;;;;31.45;17.38;;;;;;;8.85;100.00;100457.53;6200390;28;20141;-76
2021/05/14 06:23:46;;;;;;;31.73;17.17;;;;;;;9.07;100.00;100458.16;6200651;28;20100;-79
2021/05/14 06:26:48;;;;;;;33.78;17.90;;;;;;;8.76;100.00;100456.25;6199864;28;20051;-77
2021/05/14 06:29:49;;;;;;;35.70;18.70;;;;;;;8.90;100.00;100463.41;6201904;28;20132;-76
2021/05/14 06:32:50;;;;;;;34.88;17.50;;;;;;;8.93;100.00;100460.63;6200323;28;20054;-79
2021/05/14 06:35:51;;;;;;;34.28;18.70;;;;;;;8.84;100.00;100466.34;6200730;28;20093;-80
2021/05/14 06:38:53;;;;;;;37.25;19.17;;;;;;;9.05;100.00;100470.50;6200367;28;20050;-76
2021/05/14 06:41:53;;;;;;;27.92;17.00;;;;;;;8.97;100.00;100463.94;6198556;28;20046;-77
2021/05/14 06:44:55;;;;;;;31.42;17.50;;;;;;;9.07;100.00;100466.00;6196907;28;20053;-76
2021/05/14 06:48:01;;;;;;;29.48;17.27;;;;;;;9.08;100.00;100467.72;6173820;28;20050;-77
2021/05/14 06:51:02;;;;;;;32.85;18.15;;;;;;;8.90;100.00;100471.25;6174375;28;20499;-77
2021/05/14 06:54:05;;;;;;;33.88;18.75;;;;;;;8.79;100.00;100473.59;6174010;28;20050;-77
2021/05/14 06:57:06;;;;;;;33.40;17.52;;;;;;;9.02;100.00;100475.03;6176082;28;20051;-77
2021/05/14 07:00:08;;;;;;;40.58;17.52;;;;;;;8.89;100.00;100480.06;6179171;28;20053;-77
2021/05/14 07:03:09;;;;;;;26.83;14.88;;;;;;;9.12;100.00;100479.72;6178591;28;20051;-77
2021/05/14 07:06:11;;;;;;;24.83;15.35;;;;;;;9.05;100.00;100482.75;6180284;28;20404;-70
2021/05/14 07:09:13;;;;;;;24.80;14.50;;;;;;;9.17;100.00;100484.72;6178230;28;20422;-77
2021/05/14 07:12:14;;;;;;;22.05;12.80;;;;;;;9.20;98.07;100474.09;6179258;28;20055;-78
2021/05/14 07:15:15;;;;;;;23.85;13.80;;;;;;;9.30;97.42;100475.28;6180294;28;20735;-77
2021/05/14 07:18:16;;;;;;;28.70;15.07;;;;;;;9.19;98.57;100482.03;6178454;28;20466;-77
2021/05/14 07:21:16;;;;;;;33.60;18.50;;;;;;;9.12;97.54;100481.50;6181367;28;20082;-76
2021/05/14 07:24:18;;;;;;;32.67;18.35;;;;;;;9.27;98.19;100485.97;6178128;28;20054;-77
2021/05/14 07:27:19;;;;;;;31.38;18.92;;;;;;;9.16;99.42;100485.66;6178619;28;20058;-77
2021/05/14 07:30:21;;;;;;;32.45;19.15;;;;;;;9.37;98.93;100492.41;6177750;28;20051;-77
2021/05/14 07:33:21;;;;;;;32.30;16.10;;;;;;;9.27;98.17;100493.84;6177822;28;20055;-77
2021/05/14 07:36:24;;;;;;;28.60;15.85;;;;;;;9.45;98.31;100499.91;6186998;28;20077;-76
2021/05/14 07:39:26;;;;;;;31.17;16.23;;;;;;;9.35;98.57;100503.91;6193494;28;20042;-77
2021/05/14 07:42:27;;;;;;;39.97;23.85;;;;;;;9.34;98.30;100504.84;6202035;28;20050;-77
2021/05/14 07:45:28;;;;;;;39.90;24.95;;;;;;;9.31;98.78;100510.22;6201470;28;20050;-77
2021/05/14 07:48:29;;;;;;;38.75;21.58;;;;;;;9.40;98.19;100508.00;6201869;28;20130;-77
2021/05/14 07:51:30;;;;;;;33.38;18.25;;;;;;;9.44;97.38;100513.06;6201542;28;20054;-77
2021/05/14 07:54:32;;;;;;;32.15;18.42;;;;;;;9.42;97.48;100507.06;6201180;28;20054;-77
2021/05/14 07:57:33;;;;;;;28.70;17.42;;;;;;;9.50;96.49;100513.63;6188608;28;20103;-75
2021/05/14 08:00:34;;;;;;;28.98;17.58;;;;;;;9.33;97.27;100514.47;6187147;28;20129;-75
2021/05/14 08:03:35;;;;;;;28.67;16.92;;;;;;;9.52;96.67;100517.00;6188465;28;20509;-74
2021/05/14 08:06:36;;;;;;;33.42;18.38;;;;;;;9.49;97.02;100504.03;6187534;28;20055;-74
2021/05/14 08:09:42;;;;;;;30.30;19.48;;;;;;;9.45;97.64;100510.38;6186574;28;20081;-74
2021/05/14 08:12:43;;;;;;;32.20;19.45;;;;;;;9.61;96.70;100513.88;6188053;28;20180;-74
2021/05/14 08:15:45;;;;;;;32.20;18.48;;;;;;;9.61;96.90;100524.38;6186699;28;20503;-75
2021/05/14 08:18:46;;;;;;;35.95;18.63;;;;;;;9.60;97.85;100519.22;6188292;28;20073;-75
2021/05/14 08:21:47;;;;;;;34.22;19.00;;;;;;;9.68;96.00;100522.28;6185765;28;20157;-75
2021/05/14 08:24:48;;;;;;;31.10;19.48;;;;;;;9.93;95.68;100516.56;6176643;28;20078;-74
2021/05/14 08:27:49;;;;;;;37.33;19.88;;;;;;;9.90;95.00;100514.97;6185700;28;20050;-74
2021/05/14 08:30:50;;;;;;;37.58;19.95;;;;;;;9.97;93.35;100517.25;6185805;28;20133;-74
2021/05/14 08:33:51;;;;;;;43.40;20.50;;;;;;;9.95;93.75;100519.09;6187739;28;20051;-75
2021/05/14 08:36:52;;;;;;;38.70;23.10;;;;;;;10.06;92.94;100507.06;6185576;28;20101;-74
2021/05/14 08:39:53;;;;;;;34.72;21.88;;;;;;;10.08;92.04;100513.09;6188271;28;20057;-77
2021/05/14 08:42:54;;;;;;;40.97;23.70;;;;;;;10.45;91.43;100512.88;6200301;28;20050;-74
2021/05/14 08:45:55;;;;;;;36.95;22.52;;;;;;;10.50;89.76;100516.09;6200658;28;20065;-75
2021/05/14 08:48:57;;;;;;;36.85;22.08;;;;;;;10.54;89.46;100509.72;6200325;28;20073;-74
2021/05/14 08:51:59;;;;;;;39.72;22.20;;;;;;;10.50;89.61;100508.19;6200459;28;20054;-75
2021/05/14 08:55:02;;;;;;;34.92;21.20;;;;;;;10.58;89.42;100513.84;6192660;28;20112;-76
2021/05/14 08:58:03;;;;;;;39.67;23.20;;;;;;;10.59;88.89;100511.16;6201175;28;20130;-75
2021/05/14 09:01:04;;;;;;;44.35;26.15;;;;;;;10.79;87.51;100511.78;6192574;28;20495;-77
2021/05/14 09:04:07;;;;;;;51.65;29.08;;;;;;;11.06;85.20;100514.56;6192536;28;20050;-73
2021/05/14 09:07:16;;;;;;;52.28;30.90;;;;;;;11.01;87.06;100512.22;6198907;28;20050;-75
2021/05/14 09:10:18;;;;;;;46.28;26.75;;;;;;;11.00;86.20;100517.56;6202915;28;20101;-75
2021/05/14 09:13:19;;;;;;;50.97;27.00;;;;;;;10.83;87.93;100519.38;6202000;28;20050;-76
2021/05/14 09:16:37;;;;;;;50.67;28.63;;;;;;;10.88;87.42;100513.88;6201432;28;20427;-75
2021/05/14 09:19:39;;;;;;;51.88;29.92;;;;;;;10.90;88.56;100509.34;6204887;28;20050;-78
2021/05/14 09:22:40;;;;;;;58.42;32.42;;;;;;;10.73;88.59;100514.75;6201790;28;20097;-78
2021/05/14 09:25:50;;;;;;;58.45;33.35;;;;;;;10.92;87.68;100510.97;6205571;28;20069;-77
2021/05/14 09:28:51;;;;;;;53.65;30.70;;;;;;;10.81;88.81;100523.03;6203751;28;20046;-77
2021/05/14 09:31:52;;;;;;;63.53;31.92;;;;;;;10.95;87.67;100523.09;6203943;28;20043;-77
2021/05/14 09:34:54;;;;;;;51.20;30.45;;;;;;;11.03;87.84;100520.84;6202658;28;20417;-78
2021/05/14 09:37:55;;;;;;;58.78;30.75;;;;;;;11.25;87.76;100519.56;6196560;28;20052;-77
2021/05/14 09:41:00;;;;;;;47.53;28.48;;;;;;;11.42;82.40;100522.03;6195802;28;20050;-77
2021/05/14 09:44:07;;;;;;;52.63;28.92;;;;;;;11.28;83.90;100519.41;6202501;28;20050;-78
2021/05/14 09:47:08;;;;;;;53.33;28.92;;;;;;;11.46;83.93;100520.94;6201394;28;20051;-77
2021/05/14 09:50:32;;;;;;;48.65;26.95;;;;;;;11.43;84.39;100518.47;6209774;28;20130;-78
2021/05/14 09:53:34;;;;;;;53.78;27.70;;;;;;;11.64;82.48;100511.91;6204055;28;20069;-79
2021/05/14 09:56:37;;;;;;;44.45;26.75;;;;;;;11.66;83.41;100514.44;6203503;28;20060;-76
2021/05/14 09:59:38;;;;;;;46.13;27.20;;;;;;;11.63;82.69;100506.75;6200441;28;20070;-77
2021/05/14 10:02:41;;;;;;;47.22;27.13;;;;;;;11.81;81.22;100510.88;6198666;28;20186;-73
2021/05/14 10:05:43;;;;;;;50.63;27.63;;;;;;;12.04;80.49;100511.25;6197135;28;20061;-77
2021/05/14 10:08:49;;;;;;;45.70;27.35;;;;;;;12.12;79.96;100511.59;6198420;28;20458;-77
2021/05/14 10:11:52;;;;;;;41.53;24.83;;;;;;;11.95;81.93;100512.69;6200775;28;20054;-77
2021/05/14 10:14:56;;;;;;;43.65;24.00;;;;;;;12.24;81.11;100509.97;6201688;28;20070;-77
2021/05/14 10:17:58;;;;;;;44.83;24.17;;;;;;;12.38;77.79;100502.03;6199859;28;20470;-77
2021/05/14 10:21:06;;;;;;;40.03;24.60;;;;;;;12.15;79.03;100499.06;6201102;28;20062;-77
2021/05/14 10:24:08;;;;;;;38.85;23.95;;;;;;;12.33;80.02;100501.47;6198271;28;20061;-77
2021/05/14 10:27:17;;;;;;;36.45;23.73;;;;;;;12.59;79.21;100494.50;6199133;28;20514;-78
2021/05/14 10:30:19;;;;;;;34.08;21.38;;;;;;;12.51;77.83;100495.00;6246967;22;20053;-77
2021/05/14 10:33:40;;;;;;;30.58;20.25;;;;;;;12.52;75.19;100495.84;6245353;28;20050;-77
2021/05/14 10:36:46;;;;;;;31.50;20.13;;;;;;;12.47;76.33;100488.25;6222448;28;20588;-77
2021/05/14 10:39:47;;;;;;;28.20;20.00;;;;;;;12.72;75.31;100487.50;6222024;28;20491;-77
2021/05/14 10:42:49;;;;;;;32.33;21.35;;;;;;;12.66;75.86;100493.16;6222348;28;20046;-77
2021/05/14 10:46:00;;;;;;;30.55;20.77;;;;;;;12.77;76.33;100484.53;6222044;28;20604;-76
2021/05/14 10:49:04;;;;;;;29.48;20.92;;;;;;;12.56;77.06;100492.91;6222129;28;20062;-77
2021/05/14 10:52:05;;;;;;;35.45;22.45;;;;;;;12.54;75.41;100481.63;6222112;28;20050;-77
2021/05/14 10:55:06;;;;;;;35.25;20.95;;;;;;;12.67;77.56;100487.78;6222155;28;20107;-77
2021/05/14 10:58:08;;;;;;;31.67;20.90;;;;;;;12.68;76.85;100483.38;6222083;28;20053;-77
2021/05/14 11:01:26;;;;;;;33.47;20.73;;;;;;;12.76;77.85;100486.31;6224380;28;20461;-77
2021/05/14 11:04:42;;;;;;;26.80;18.55;;;;;;;13.19;75.51;100491.34;6229032;28;20092;-77
2021/05/14 11:07:43;;;;;;;251.02;38.28;;;;;;;13.05;75.67;100483.53;6221786;28;20414;-76
2021/05/14 11:10:59;;;;;;;111.30;26.27;;;;;;;13.11;77.98;100491.00;6221694;28;20085;-76
2021/05/14 11:14:16;;;;;;;29.65;18.77;;;;;;;13.18;75.77;100487.88;6221924;28;20046;-77
2021/05/14 11:17:18;;;;;;;27.58;17.77;;;;;;;13.39;74.08;100490.00;6220068;28;20533;-77
2021/05/14 11:20:22;;;;;;;24.95;17.30;;;;;;;13.24;75.14;100491.91;6222671;28;20096;-76
2021/05/14 11:23:32;;;;;;;34.20;19.23;;;;;;;13.49;75.33;100480.50;6221624;28;20057;-77
2021/05/14 11:26:33;;;;;;;31.88;16.80;;;;;;;13.70;72.73;100478.97;6222349;28;20057;-76
2021/05/14 11:29:43;;;;;;;20.73;15.05;;;;;;;14.10;70.37;100477.94;6221750;28;20490;-77
2021/05/14 11:32:44;;;;;;;;;;;;;;;14.32;69.23;100471.94;6222788;28;20494;-76
2021/05/14 11:35:45;;;;;;;58.78;15.93;;;;;;;14.66;68.85;100486.19;6221617;28;19921;-77
2021/05/14 11:38:48;;;;;;;40.85;16.05;;;;;;;14.56;68.03;100482.53;6221838;28;20590;-77
2021/05/14 11:41:58;;;;;;;19.65;14.80;;;;;;;14.23;68.06;100480.53;6221586;28;20064;-77
2021/05/14 11:45:03;;;;;;;19.02;13.35;;;;;;;14.17;70.11;100481.81;6226556;28;20049;-78
2021/05/14 11:48:09;;;;;;;21.20;11.38;;;;;;;14.35;65.02;100482.28;6226972;28;20100;-78
2021/05/14 11:51:10;;;;;;;15.77;9.68;;;;;;;14.29;61.07;100483.56;6226772;28;20048;-76
2021/05/14 11:54:13;;;;;;;15.65;10.32;;;;;;;14.29;64.44;100478.28;6226691;28;20133;-77
2021/05/14 11:57:26;;;;;;;15.90;11.18;;;;;;;14.42;68.33;100487.00;6224950;28;20057;-76
2021/05/14 12:00:30;;;;;;;39.17;12.18;;;;;;;14.86;64.58;100482.06;6224010;28;20050;-77
2021/05/14 12:03:31;;;;;;;12.63;9.40;;;;;;;14.97;61.33;100492.66;6226060;28;20049;-77
2021/05/14 12:06:32;;;;;;;13.45;9.93;;;;;;;14.91;61.12;100479.91;6226831;28;20046;-78
2021/05/14 12:09:33;;;;;;;14.85;9.73;;;;;;;14.98;61.74;100487.22;6225665;28;20045;-77
2021/05/14 12:12:37;;;;;;;12.60;8.90;;;;;;;14.82;61.19;100481.44;6226041;28;20053;-77
2021/05/14 12:15:39;;;;;;;14.60;9.85;;;;;;;14.83;60.77;100479.63;6226346;28;20053;-78
2021/05/14 12:18:45;;;;;;;11.88;8.85;;;;;;;15.07;61.99;100483.03;6226242;28;20046;-77
2021/05/14 12:21:46;;;;;;;9.68;7.75;;;;;;;15.14;59.62;100479.00;6225432;28;20558;-71
2021/05/14 12:24:47;;;;;;;15.18;8.05;;;;;;;15.36;59.69;100480.81;6225194;28;20054;-72
2021/05/14 12:27:49;;;;;;;15.05;7.93;;;;;;;15.27;61.80;100491.28;6225046;28;20160;-72
2021/05/14 12:30:51;;;;;;;10.13;8.18;;;;;;;15.84;59.71;100482.41;6225417;28;20042;-78
2021/05/14 12:33:53;;;;;;;10.02;7.88;;;;;;;15.88;59.25;100484.69;6225991;28;20076;-79
2021/05/14 12:36:56;;;;;;;11.40;8.40;;;;;;;15.86;58.11;100491.09;6226669;28;20576;-78
2021/05/14 12:39:57;;;;;;;15.52;9.07;;;;;;;15.87;60.93;100498.91;6225162;28;20045;-78
2021/05/14 12:43:05;;;;;;;13.40;9.73;;;;;;;15.57;59.76;100485.41;6225089;28;20060;-77
2021/05/14 12:46:07;;;;;;;16.48;9.77;;;;;;;15.50;61.60;100489.50;6225132;28;20073;-77
2021/05/14 12:49:09;;;;;;;14.23;10.00;;;;;;;15.52;61.76;100482.28;6224912;28;20046;-78
2021/05/14 12:52:12;;;;;;;15.55;10.35;;;;;;;15.73;60.59;100486.75;6229536;28;20041;-76
2021/05/14 12:55:14;;;;;;;11.55;9.15;;;;;;;16.04;57.45;100479.03;6241693;28;20092;-76
2021/05/14 12:58:15;;;;;;;11.15;8.02;;;;;;;16.12;58.64;100468.63;6247585;28;20498;-79
2021/05/14 13:01:24;;;;;;;14.32;8.20;;;;;;;16.39;57.70;100475.28;6241646;28;20044;-76
2021/05/14 13:04:29;;;;;;;12.00;8.40;;;;;;;16.92;55.51;100478.84;6251053;28;20053;-79
2021/05/14 13:07:30;;;;;;;12.13;8.30;;;;;;;16.98;54.50;100486.28;6251354;28;20045;-78
2021/05/14 13:10:36;;;;;;;17.83;9.75;;;;;;;16.73;56.75;100482.19;6250408;28;20064;-78
2021/05/14 13:13:37;;;;;;;14.23;8.38;;;;;;;16.63;55.91;100481.25;6251311;28;20056;-78
2021/05/14 13:16:39;;;;;;;12.50;8.27;;;;;;;16.72;56.16;100479.69;6251997;28;20050;-79
2021/05/14 13:19:40;;;;;;;13.48;8.82;;;;;;;16.90;56.05;100485.25;6249000;28;20049;-78
2021/05/14 13:22:41;;;;;;;17.67;9.45;;;;;;;16.65;57.52;100486.41;6247594;28;20527;-77
2021/05/14 13:25:42;;;;;;;13.40;9.35;;;;;;;16.08;59.36;100482.25;6242343;28;20072;-77
2021/05/14 13:28:44;;;;;;;14.77;8.65;;;;;;;16.16;59.39;100487.78;6248589;28;20561;-78
2021/05/14 13:31:46;;;;;;;12.52;8.77;;;;;;;16.03;59.14;100485.25;6249391;28;20080;-78
2021/05/14 13:34:47;;;;;;;13.45;9.38;;;;;;;15.91;60.24;100492.41;6248495;28;20049;-71
2021/05/14 13:37:48;;;;;;;16.67;9.20;;;;;;;15.78;61.47;100491.69;6247063;28;20053;-77
2021/05/14 13:40:49;;;;;;;14.05;10.02;;;;;;;15.75;61.51;100496.38;6247820;28;20111;-77
2021/05/14 13:43:50;;;;;;;12.10;9.35;;;;;;;15.28;63.21;100499.09;6247193;28;20056;-77
2021/05/14 13:46:51;;;;;;;20.75;10.32;;;;;;;15.12;63.75;100510.00;6240234;28;20476;-78
2021/05/14 13:49:52;;;;;;;16.25;11.15;;;;;;;15.13;63.83;100509.06;6246554;28;20042;-78
2021/05/14 13:52:53;;;;;;;35.72;11.98;;;;;;;15.03;64.66;100501.94;6243364;28;20103;-78
2021/05/14 13:55:55;;;;;;;17.77;12.68;;;;;;;14.87;65.92;100512.84;6240331;28;20063;-77